sensor_id;sensor_type;location;lat;lon;timestamp;pressure;altitude;pressure_sealevel;temperature;humidity
17254;BME280;32542;52.832;13.816;2022-08-23T00:00:48;101700.28;;;24.27;54.37
17254;BME280;32542;52.832;13.816;2022-08-23T00:03:53;101698.56;;;24.26;54.51
17254;BME280;32542;52.832;13.816;2022-08-23T00:06:58;101700.28;;;24.27;54.39
17254;BME280;32542;52.832;13.816;2022-08-23T00:10:01;101693.19;;;24.26;54.31
17254;BME280;32542;52.832;13.816;2022-08-23T00:13:04;101687.84;;;24.26;54.50
17254;BME280;32542;52.832;13.816;2022-08-23T00:16:08;101687.84;;;24.26;54.30
17254;BME280;32542;52.832;13.816;2022-08-23T00:19:14;101689.66;;;24.25;54.64
17254;BME280;32542;52.832;13.816;2022-08-23T00:22:18;101686.09;;;24.25;54.62
17254;BME280;32542;52.832;13.816;2022-08-23T00:25:21;101676.34;;;24.24;54.43
17254;BME280;32542;52.832;13.816;2022-08-23T00:28:24;101670.03;;;24.25;54.61
17254;BME280;32542;52.832;13.816;2022-08-23T00:31:28;101664.69;;;24.25;54.29
17254;BME280;32542;52.832;13.816;2022-08-23T00:34:32;101675.38;;;24.25;54.32
17254;BME280;32542;52.832;13.816;2022-08-23T00:37:36;101678.16;;;24.23;54.46
17254;BME280;32542;52.832;13.816;2022-08-23T00:40:40;101674.50;;;24.24;54.44
17254;BME280;32542;52.832;13.816;2022-08-23T00:43:43;101666.47;;;24.24;54.08
17254;BME280;32542;52.832;13.816;2022-08-23T00:47:07;101664.69;;;24.25;54.51
17254;BME280;32542;52.832;13.816;2022-08-23T00:50:31;101656.66;;;24.25;54.12
17254;BME280;32542;52.832;13.816;2022-08-23T00:53:40;101653.09;;;24.24;54.53
17254;BME280;32542;52.832;13.816;2022-08-23T00:56:44;101653.19;;;24.23;54.51
17254;BME280;32542;52.832;13.816;2022-08-23T00:59:47;101650.50;;;24.23;54.57
17254;BME280;32542;52.832;13.816;2022-08-23T01:02:53;101645.22;;;24.21;54.59
17254;BME280;32542;52.832;13.816;2022-08-23T01:06:03;101655.84;;;24.23;54.23
17254;BME280;32542;52.832;13.816;2022-08-23T01:09:12;101653.25;;;24.21;54.25
17254;BME280;32542;52.832;13.816;2022-08-23T01:12:20;101652.38;;;24.21;54.16
17254;BME280;32542;52.832;13.816;2022-08-23T01:15:37;101654.13;;;24.22;54.32
17254;BME280;32542;52.832;13.816;2022-08-23T01:18:44;101654.13;;;24.22;54.44
17254;BME280;32542;52.832;13.816;2022-08-23T01:21:52;101647.91;;;24.21;54.37
17254;BME280;32542;52.832;13.816;2022-08-23T01:25:01;101647.03;;;24.21;54.30
17254;BME280;32542;52.832;13.816;2022-08-23T01:28:15;101647.91;;;24.21;54.57
17254;BME280;32542;52.832;13.816;2022-08-23T01:31:19;101647.03;;;24.21;54.29
17254;BME280;32542;52.832;13.816;2022-08-23T01:34:25;101656.88;;;24.20;54.59
17254;BME280;32542;52.832;13.816;2022-08-23T01:37:29;101649.78;;;24.19;54.51
17254;BME280;32542;52.832;13.816;2022-08-23T01:40:34;101660.50;;;24.19;54.49
17254;BME280;32542;52.832;13.816;2022-08-23T01:43:39;101661.38;;;24.20;54.46
17254;BME280;32542;52.832;13.816;2022-08-23T01:46:42;101667.66;;;24.19;54.24
17254;BME280;32542;52.832;13.816;2022-08-23T01:49:46;101661.50;;;24.17;54.58
17254;BME280;32542;52.832;13.816;2022-08-23T01:52:50;101663.22;;;24.18;54.56
17254;BME280;32542;52.832;13.816;2022-08-23T01:55:58;101658.84;;;24.17;54.51
17254;BME280;32542;52.832;13.816;2022-08-23T01:59:06;101663.41;;;24.15;54.60
17254;BME280;32542;52.832;13.816;2022-08-23T02:02:15;101662.53;;;24.14;54.31
17254;BME280;32542;52.832;13.816;2022-08-23T02:05:18;101657.16;;;24.14;54.44
17254;BME280;32542;52.832;13.816;2022-08-23T02:08:21;101655.44;;;24.13;54.34
17254;BME280;32542;52.832;13.816;2022-08-23T02:11:44;101652.78;;;24.13;54.40
17254;BME280;32542;52.832;13.816;2022-08-23T02:14:48;101658.97;;;24.14;54.46
17254;BME280;32542;52.832;13.816;2022-08-23T02:17:56;101650.94;;;24.14;54.33
17254;BME280;32542;52.832;13.816;2022-08-23T02:20:59;101658.03;;;24.15;54.64
17254;BME280;32542;52.832;13.816;2022-08-23T02:24:03;101656.28;;;24.14;54.38
17254;BME280;32542;52.832;13.816;2022-08-23T02:27:10;101657.25;;;24.13;54.62
17254;BME280;32542;52.832;13.816;2022-08-23T02:30:16;101648.34;;;24.12;54.61
17254;BME280;32542;52.832;13.816;2022-08-23T02:33:20;101651.09;;;24.11;54.70
17254;BME280;32542;52.832;13.816;2022-08-23T02:36:23;101661.81;;;24.11;54.70
17254;BME280;32542;52.832;13.816;2022-08-23T02:39:27;101650.22;;;24.10;54.76
17254;BME280;32542;52.832;13.816;2022-08-23T02:42:32;101660.94;;;24.10;54.70
17254;BME280;32542;52.832;13.816;2022-08-23T02:45:37;101664.56;;;24.09;54.58
17254;BME280;32542;52.832;13.816;2022-08-23T02:48:40;101664.56;;;24.09;54.41
17254;BME280;32542;52.832;13.816;2022-08-23T02:51:45;101661.88;;;24.09;54.74
17254;BME280;32542;52.832;13.816;2022-08-23T02:54:48;101661.00;;;24.09;54.70
17254;BME280;32542;52.832;13.816;2022-08-23T02:57:55;101664.56;;;24.09;54.35
17254;BME280;32542;52.832;13.816;2022-08-23T03:00:59;101665.41;;;24.10;54.72
17254;BME280;32542;52.832;13.816;2022-08-23T03:04:04;101673.44;;;24.10;54.45
17254;BME280;32542;52.832;13.816;2022-08-23T03:07:07;101665.41;;;24.10;54.52
17254;BME280;32542;52.832;13.816;2022-08-23T03:10:12;101663.69;;;24.09;54.55
17254;BME280;32542;52.832;13.816;2022-08-23T03:13:22;101668.09;;;24.10;54.33
17254;BME280;32542;52.832;13.816;2022-08-23T03:16:26;101667.28;;;24.08;54.39
17254;BME280;32542;52.832;13.816;2022-08-23T03:19:29;101671.78;;;24.07;54.77
17254;BME280;32542;52.832;13.816;2022-08-23T03:22:33;101664.63;;;24.08;54.80
17254;BME280;32542;52.832;13.816;2022-08-23T03:25:36;101666.41;;;24.07;54.48
17254;BME280;32542;52.832;13.816;2022-08-23T03:28:54;101665.56;;;24.07;54.81
17254;BME280;32542;52.832;13.816;2022-08-23T03:32:04;101662.03;;;24.06;54.86
17254;BME280;32542;52.832;13.816;2022-08-23T03:35:11;101665.63;;;24.05;54.84
17254;BME280;32542;52.832;13.816;2022-08-23T03:38:17;101670.94;;;24.07;54.58
17254;BME280;32542;52.832;13.816;2022-08-23T03:41:21;101669.16;;;24.06;54.49
17254;BME280;32542;52.832;13.816;2022-08-23T03:44:26;101686.97;;;24.07;54.46
17254;BME280;32542;52.832;13.816;2022-08-23T03:47:30;101691.47;;;24.06;54.76
17254;BME280;32542;52.832;13.816;2022-08-23T03:50:33;101697.69;;;24.07;54.60
17254;BME280;32542;52.832;13.816;2022-08-23T03:53:36;101695.94;;;24.06;54.84
17254;BME280;32542;52.832;13.816;2022-08-23T03:56:50;101695.94;;;24.06;54.74
17254;BME280;32542;52.832;13.816;2022-08-23T03:59:55;101695.06;;;24.05;54.65
17254;BME280;32542;52.832;13.816;2022-08-23T04:03:02;101694.22;;;24.05;54.70
17254;BME280;32542;52.832;13.816;2022-08-23T04:06:12;101701.28;;;24.06;54.61
17254;BME280;32542;52.832;13.816;2022-08-23T04:09:16;101699.56;;;24.05;54.63
17254;BME280;32542;52.832;13.816;2022-08-23T04:12:20;101697.78;;;24.03;54.84
17254;BME280;32542;52.832;13.816;2022-08-23T04:15:25;101695.09;;;24.03;54.86
17254;BME280;32542;52.832;13.816;2022-08-23T04:18:28;101692.44;;;24.03;54.79
17254;BME280;32542;52.832;13.816;2022-08-23T04:21:33;101696.91;;;24.03;54.93
17254;BME280;32542;52.832;13.816;2022-08-23T04:24:37;101698.75;;;24.02;55.02
17254;BME280;32542;52.832;13.816;2022-08-23T04:27:41;101702.25;;;24.03;54.93
17254;BME280;32542;52.832;13.816;2022-08-23T04:30:46;101700.47;;;24.03;54.75
17254;BME280;32542;52.832;13.816;2022-08-23T04:33:51;101705.81;;;24.03;55.05
17254;BME280;32542;52.832;13.816;2022-08-23T04:36:55;101705.81;;;24.03;54.81
17254;BME280;32542;52.832;13.816;2022-08-23T04:39:58;101704.91;;;24.05;54.61
17254;BME280;32542;52.832;13.816;2022-08-23T04:43:19;101700.47;;;24.03;54.68
17254;BME280;32542;52.832;13.816;2022-08-23T04:46:23;101713.84;;;24.03;55.03
17254;BME280;32542;52.832;13.816;2022-08-23T04:49:28;101709.44;;;24.02;55.12
17254;BME280;32542;52.832;13.816;2022-08-23T04:52:31;101705.81;;;24.03;55.06
17254;BME280;32542;52.832;13.816;2022-08-23T04:55:35;101705.81;;;24.03;55.00
17254;BME280;32542;52.832;13.816;2022-08-23T04:58:39;101708.56;;;24.02;54.94
17254;BME280;32542;52.832;13.816;2022-08-23T05:01:44;101714.78;;;24.02;54.80
17254;BME280;32542;52.832;13.816;2022-08-23T05:04:47;101710.38;;;24.01;55.00
17254;BME280;32542;52.832;13.816;2022-08-23T05:07:51;101719.28;;;24.02;55.00
17254;BME280;32542;52.832;13.816;2022-08-23T05:10:54;101720.19;;;24.01;55.04
17254;BME280;32542;52.832;13.816;2022-08-23T05:13:57;101726.41;;;24.01;55.04
17254;BME280;32542;52.832;13.816;2022-08-23T05:17:01;101726.41;;;24.01;55.18
17254;BME280;32542;52.832;13.816;2022-08-23T05:20:08;101732.72;;;24.00;54.96
17254;BME280;32542;52.832;13.816;2022-08-23T05:23:12;101736.25;;;24.01;55.14
17254;BME280;32542;52.832;13.816;2022-08-23T05:26:22;101731.78;;;24.01;55.20
17254;BME280;32542;52.832;13.816;2022-08-23T05:29:26;101736.25;;;24.01;54.88
17254;BME280;32542;52.832;13.816;2022-08-23T05:32:30;101738.94;;;24.01;55.13
17254;BME280;32542;52.832;13.816;2022-08-23T05:35:34;101743.34;;;24.02;54.93
17254;BME280;32542;52.832;13.816;2022-08-23T05:38:40;101740.75;;;24.00;54.97
17254;BME280;32542;52.832;13.816;2022-08-23T05:41:44;101741.59;;;24.01;55.00
17254;BME280;32542;52.832;13.816;2022-08-23T05:44:47;101741.59;;;24.01;55.30
17254;BME280;32542;52.832;13.816;2022-08-23T05:47:53;101741.59;;;24.01;55.48
17254;BME280;32542;52.832;13.816;2022-08-23T05:51:12;101742.47;;;24.01;55.90
17254;BME280;32542;52.832;13.816;2022-08-23T05:54:15;101740.69;;;24.02;55.85
17254;BME280;32542;52.832;13.816;2022-08-23T05:57:24;101744.22;;;24.02;55.92
17254;BME280;32542;52.832;13.816;2022-08-23T06:00:27;101745.06;;;24.03;56.33
17254;BME280;32542;52.832;13.816;2022-08-23T06:03:42;101745.94;;;24.03;56.17
17254;BME280;32542;52.832;13.816;2022-08-23T06:06:46;101741.50;;;24.04;56.34
17254;BME280;32542;52.832;13.816;2022-08-23T06:09:50;101747.72;;;24.05;56.31
17254;BME280;32542;52.832;13.816;2022-08-23T06:12:55;101751.25;;;24.05;56.14
17254;BME280;32542;52.832;13.816;2022-08-23T06:15:59;101742.38;;;24.05;56.14
17254;BME280;32542;52.832;13.816;2022-08-23T06:19:17;101742.38;;;24.05;56.00
17254;BME280;32542;52.832;13.816;2022-08-23T06:22:23;101742.38;;;24.05;55.79
17254;BME280;32542;52.832;13.816;2022-08-23T06:25:26;101748.56;;;24.05;56.04
17254;BME280;32542;52.832;13.816;2022-08-23T06:28:40;101753.09;;;24.05;56.24
17254;BME280;32542;52.832;13.816;2022-08-23T06:31:52;101752.22;;;24.04;55.96
17254;BME280;32542;52.832;13.816;2022-08-23T06:35:03;101756.66;;;24.03;56.15
17254;BME280;32542;52.832;13.816;2022-08-23T06:38:36;101754.97;;;24.01;56.34
17254;BME280;32542;52.832;13.816;2022-08-23T06:41:48;101763.00;;;24.01;56.07
17254;BME280;32542;52.832;13.816;2022-08-23T06:44:59;101765.75;;;23.99;56.50
17254;BME280;32542;52.832;13.816;2022-08-23T06:48:21;101765.75;;;23.99;56.57
17254;BME280;32542;52.832;13.816;2022-08-23T06:51:28;101773.78;;;23.99;56.50
17254;BME280;32542;52.832;13.816;2022-08-23T06:54:48;101772.06;;;23.98;56.68
17254;BME280;32542;52.832;13.816;2022-08-23T06:58:03;101770.31;;;23.97;56.27
17254;BME280;32542;52.832;13.816;2022-08-23T07:01:36;101770.25;;;23.99;56.87
17254;BME280;32542;52.832;13.816;2022-08-23T07:04:58;101779.22;;;23.98;56.68
17254;BME280;32542;52.832;13.816;2022-08-23T07:08:21;101773.88;;;23.98;56.85
17254;BME280;32542;52.832;13.816;2022-08-23T07:11:25;101773.91;;;23.96;57.36
17254;BME280;32542;52.832;13.816;2022-08-23T07:14:32;101774.00;;;23.95;57.47
17254;BME280;32542;52.832;13.816;2022-08-23T07:17:37;101772.28;;;23.94;57.72
17254;BME280;32542;52.832;13.816;2022-08-23T07:20:40;101771.31;;;23.95;57.63
17254;BME280;32542;52.832;13.816;2022-08-23T07:23:44;101774.88;;;23.95;57.70
17254;BME280;32542;52.832;13.816;2022-08-23T07:26:49;101758.81;;;23.95;57.77
17254;BME280;32542;52.832;13.816;2022-08-23T07:29:53;101759.75;;;23.94;58.16
17254;BME280;32542;52.832;13.816;2022-08-23T07:32:56;101756.22;;;23.94;58.08
17254;BME280;32542;52.832;13.816;2022-08-23T07:36:02;101757.06;;;23.94;58.10
17254;BME280;32542;52.832;13.816;2022-08-23T07:39:08;101761.56;;;23.94;57.94
17254;BME280;32542;52.832;13.816;2022-08-23T07:42:11;101765.09;;;23.94;57.95
17254;BME280;32542;52.832;13.816;2022-08-23T07:45:25;101767.72;;;23.96;58.03
17254;BME280;32542;52.832;13.816;2022-08-23T07:48:32;101775.78;;;23.94;58.74
17254;BME280;32542;52.832;13.816;2022-08-23T07:51:59;101771.31;;;23.95;58.29
17254;BME280;32542;52.832;13.816;2022-08-23T07:55:04;101773.13;;;23.94;58.40
17254;BME280;32542;52.832;13.816;2022-08-23T07:58:31;101775.75;;;23.96;58.07
17254;BME280;32542;52.832;13.816;2022-08-23T08:02:00;101779.28;;;23.96;58.94
17254;BME280;32542;52.832;13.816;2022-08-23T08:05:04;101778.47;;;23.94;58.51
17254;BME280;32542;52.832;13.816;2022-08-23T08:08:08;101783.81;;;23.94;58.73
17254;BME280;32542;52.832;13.816;2022-08-23T08:11:15;101777.53;;;23.95;58.47
17254;BME280;32542;52.832;13.816;2022-08-23T08:14:18;101776.66;;;23.95;58.62
17254;BME280;32542;52.832;13.816;2022-08-23T08:17:26;101773.13;;;23.94;58.92
17254;BME280;32542;52.832;13.816;2022-08-23T08:20:52;101776.59;;;23.96;58.76
17254;BME280;32542;52.832;13.816;2022-08-23T08:24:21;101776.75;;;23.93;59.23
17254;BME280;32542;52.832;13.816;2022-08-23T08:27:29;101783.81;;;23.94;59.55
17254;BME280;32542;52.832;13.816;2022-08-23T08:30:36;101779.28;;;23.96;59.06
17254;BME280;32542;52.832;13.816;2022-08-23T08:33:40;101777.47;;;23.97;59.07
17254;BME280;32542;52.832;13.816;2022-08-23T08:36:48;101776.59;;;23.96;59.35
17254;BME280;32542;52.832;13.816;2022-08-23T08:39:53;101783.69;;;23.97;59.26
17254;BME280;32542;52.832;13.816;2022-08-23T08:43:22;101773.00;;;23.97;58.99
17254;BME280;32542;52.832;13.816;2022-08-23T08:46:36;101784.63;;;23.96;59.19
17254;BME280;32542;52.832;13.816;2022-08-23T08:49:48;101774.75;;;23.98;59.41
17254;BME280;32542;52.832;13.816;2022-08-23T08:52:59;101774.94;;;23.94;59.98
17254;BME280;32542;52.832;13.816;2022-08-23T08:56:26;101776.75;;;23.93;59.33
17254;BME280;32542;52.832;13.816;2022-08-23T09:00:10;101782.09;;;23.93;58.88
17254;BME280;32542;52.832;13.816;2022-08-23T09:03:18;101776.75;;;23.93;58.70
17254;BME280;32542;52.832;13.816;2022-08-23T09:06:27;101781.16;;;23.94;58.62
17254;BME280;32542;52.832;13.816;2022-08-23T09:09:49;101785.56;;;23.95;58.96
17254;BME280;32542;52.832;13.816;2022-08-23T09:13:02;101789.97;;;23.96;58.76
17254;BME280;32542;52.832;13.816;2022-08-23T09:16:21;101788.25;;;23.95;58.83
17254;BME280;32542;52.832;13.816;2022-08-23T09:19:33;101788.16;;;23.97;58.79
17254;BME280;32542;52.832;13.816;2022-08-23T09:22:40;101785.44;;;23.98;59.01
17254;BME280;32542;52.832;13.816;2022-08-23T09:25:55;101783.69;;;23.97;58.50
17254;BME280;32542;52.832;13.816;2022-08-23T09:29:16;101781.81;;;23.99;58.53
17254;BME280;32542;52.832;13.816;2022-08-23T09:32:33;101781.81;;;23.99;58.32
17254;BME280;32542;52.832;13.816;2022-08-23T09:35:40;101780.91;;;24.00;58.23
17254;BME280;32542;52.832;13.816;2022-08-23T09:38:51;101777.34;;;24.00;58.05
17254;BME280;32542;52.832;13.816;2022-08-23T09:41:57;101783.50;;;24.02;58.47
17254;BME280;32542;52.832;13.816;2022-08-23T09:45:03;101785.28;;;24.01;58.33
17254;BME280;32542;52.832;13.816;2022-08-23T09:48:13;101778.13;;;24.02;58.43
17254;BME280;32542;52.832;13.816;2022-08-23T09:51:23;101787.88;;;24.03;58.31
17254;BME280;32542;52.832;13.816;2022-08-23T09:54:29;101775.38;;;24.03;58.10
17254;BME280;32542;52.832;13.816;2022-08-23T09:57:36;101784.41;;;24.01;58.30
17254;BME280;32542;52.832;13.816;2022-08-23T10:00:39;101787.16;;;23.99;57.96
17254;BME280;32542;52.832;13.816;2022-08-23T10:03:45;101781.81;;;23.99;57.91
17254;BME280;32542;52.832;13.816;2022-08-23T10:06:56;101786.28;;;23.99;58.34
17254;BME280;32542;52.832;13.816;2022-08-23T10:10:20;101781.69;;;24.02;57.93
17254;BME280;32542;52.832;13.816;2022-08-23T10:13:27;101788.13;;;23.98;57.77
17254;BME280;32542;52.832;13.816;2022-08-23T10:16:38;101788.13;;;23.98;57.82
17254;BME280;32542;52.832;13.816;2022-08-23T10:19:52;101792.53;;;23.99;57.95
17254;BME280;32542;52.832;13.816;2022-08-23T10:23:19;101784.50;;;23.99;57.66
17254;BME280;32542;52.832;13.816;2022-08-23T10:26:29;101785.44;;;23.98;57.54
17254;BME280;32542;52.832;13.816;2022-08-23T10:29:36;101791.66;;;23.99;57.65
17254;BME280;32542;52.832;13.816;2022-08-23T10:32:49;101785.44;;;23.98;57.25
17254;BME280;32542;52.832;13.816;2022-08-23T10:36:02;101782.69;;;24.00;57.13
17254;BME280;32542;52.832;13.816;2022-08-23T10:39:13;101781.09;;;23.96;57.64
17254;BME280;32542;52.832;13.816;2022-08-23T10:42:24;101783.81;;;23.94;57.40
17254;BME280;32542;52.832;13.816;2022-08-23T10:45:32;101786.50;;;23.94;57.34
17254;BME280;32542;52.832;13.816;2022-08-23T10:48:47;101783.69;;;23.97;57.29
17254;BME280;32542;52.832;13.816;2022-08-23T10:51:55;101788.06;;;24.00;56.61
17254;BME280;32542;52.832;13.816;2022-08-23T10:55:04;101777.47;;;23.97;56.74
17254;BME280;32542;52.832;13.816;2022-08-23T10:58:22;101778.41;;;23.96;57.15
17254;BME280;32542;52.832;13.816;2022-08-23T11:01:38;101781.91;;;23.98;57.14
17254;BME280;32542;52.832;13.816;2022-08-23T11:04:53;101781.91;;;23.98;56.85
17254;BME280;32542;52.832;13.816;2022-08-23T11:08:05;101782.78;;;23.98;56.90
17254;BME280;32542;52.832;13.816;2022-08-23T11:11:31;101781.81;;;23.99;56.61
17254;BME280;32542;52.832;13.816;2022-08-23T11:14:42;101782.69;;;24.00;56.61
17254;BME280;32542;52.832;13.816;2022-08-23T11:17:55;101791.53;;;24.02;56.02
17254;BME280;32542;52.832;13.816;2022-08-23T11:21:08;101786.25;;;24.00;56.20
17254;BME280;32542;52.832;13.816;2022-08-23T11:24:31;101796.16;;;23.98;55.30
17254;BME280;32542;52.832;13.816;2022-08-23T11:27:39;101792.66;;;23.96;55.69
17254;BME280;32542;52.832;13.816;2022-08-23T11:30:48;101787.28;;;23.96;56.02
17254;BME280;32542;52.832;13.816;2022-08-23T11:34:05;101782.78;;;23.98;56.04
17254;BME280;32542;52.832;13.816;2022-08-23T11:37:28;101780.09;;;23.98;55.81
17254;BME280;32542;52.832;13.816;2022-08-23T11:40:56;101781.81;;;23.99;55.80
17254;BME280;32542;52.832;13.816;2022-08-23T11:44:23;101780.91;;;24.00;55.93
17254;BME280;32542;52.832;13.816;2022-08-23T11:47:38;101779.94;;;24.01;55.70
17254;BME280;32542;52.832;13.816;2022-08-23T11:51:00;101782.53;;;24.03;55.63
17254;BME280;32542;52.832;13.816;2022-08-23T11:54:20;101791.44;;;24.03;55.92
17254;BME280;32542;52.832;13.816;2022-08-23T11:57:42;101782.53;;;24.05;55.65
17254;BME280;32542;52.832;13.816;2022-08-23T12:00:54;101792.28;;;24.06;55.68
17254;BME280;32542;52.832;13.816;2022-08-23T12:04:02;101791.34;;;24.07;55.67
17254;BME280;32542;52.832;13.816;2022-08-23T12:07:11;101798.50;;;24.06;55.50
17254;BME280;32542;52.832;13.816;2022-08-23T12:10:16;101793.16;;;24.06;55.61
17254;BME280;32542;52.832;13.816;2022-08-23T12:13:45;101794.03;;;24.07;55.54
17254;BME280;32542;52.832;13.816;2022-08-23T12:16:48;101792.19;;;24.07;55.39
17254;BME280;32542;52.832;13.816;2022-08-23T12:19:59;101795.75;;;24.08;55.29
17254;BME280;32542;52.832;13.816;2022-08-23T12:23:19;101796.69;;;24.07;55.55
17254;BME280;32542;52.832;13.816;2022-08-23T12:26:26;101784.16;;;24.07;55.41
17254;BME280;32542;52.832;13.816;2022-08-23T12:29:39;101786.00;;;24.07;55.42
17254;BME280;32542;52.832;13.816;2022-08-23T12:32:51;101785.00;;;24.09;55.22
17254;BME280;32542;52.832;13.816;2022-08-23T12:36:00;101779.56;;;24.11;55.27
17254;BME280;32542;52.832;13.816;2022-08-23T12:39:24;101781.28;;;24.12;55.33
17254;BME280;32542;52.832;13.816;2022-08-23T12:42:30;101783.03;;;24.13;55.14
17254;BME280;32542;52.832;13.816;2022-08-23T12:45:40;101783.03;;;24.13;55.24
17254;BME280;32542;52.832;13.816;2022-08-23T12:48:45;101782.16;;;24.12;55.43
17254;BME280;32542;52.832;13.816;2022-08-23T12:51:49;101781.28;;;24.12;55.34
17254;BME280;32542;52.832;13.816;2022-08-23T12:54:53;101778.56;;;24.13;55.47
17254;BME280;32542;52.832;13.816;2022-08-23T12:57:58;101778.56;;;24.13;55.27
17254;BME280;32542;52.832;13.816;2022-08-23T13:01:06;101773.22;;;24.13;55.48
17254;BME280;32542;52.832;13.816;2022-08-23T13:04:11;101773.22;;;24.13;55.24
17254;BME280;32542;52.832;13.816;2022-08-23T13:07:20;101767.84;;;24.13;55.51
17254;BME280;32542;52.832;13.816;2022-08-23T13:10:23;101763.34;;;24.14;55.30
17254;BME280;32542;52.832;13.816;2022-08-23T13:13:27;101768.69;;;24.14;55.27
17254;BME280;32542;52.832;13.816;2022-08-23T13:16:41;101776.69;;;24.15;55.35
17254;BME280;32542;52.832;13.816;2022-08-23T13:19:46;101770.44;;;24.15;55.25
17254;BME280;32542;52.832;13.816;2022-08-23T13:23:01;101767.78;;;24.15;55.37
17254;BME280;32542;52.832;13.816;2022-08-23T13:29:52;101771.34;;;24.15;55.44
17254;BME280;32542;52.832;13.816;2022-08-23T13:33:19;101770.44;;;24.15;55.25
17254;BME280;32542;52.832;13.816;2022-08-23T13:36:24;101772.16;;;24.16;55.55
17254;BME280;32542;52.832;13.816;2022-08-23T13:39:29;101774.00;;;24.15;55.48
17254;BME280;32542;52.832;13.816;2022-08-23T13:42:34;101768.56;;;24.17;55.45
17254;BME280;32542;52.832;13.816;2022-08-23T13:45:44;101770.28;;;24.18;55.45
17254;BME280;32542;52.832;13.816;2022-08-23T13:48:53;101772.16;;;24.16;55.12
17254;BME280;32542;52.832;13.816;2022-08-23T13:52:06;101764.22;;;24.14;55.31
17254;BME280;32542;52.832;13.816;2022-08-23T13:55:30;101762.44;;;24.15;55.53
17254;BME280;32542;52.832;13.816;2022-08-23T13:58:33;101758.88;;;24.14;55.31
17254;BME280;32542;52.832;13.816;2022-08-23T14:01:37;101765.91;;;24.17;55.44
17254;BME280;32542;52.832;13.816;2022-08-23T14:04:41;101764.94;;;24.18;55.50
17254;BME280;32542;52.832;13.816;2022-08-23T14:07:45;101756.88;;;24.19;55.49
17254;BME280;32542;52.832;13.816;2022-08-23T14:10:49;101763.09;;;24.20;55.56
17254;BME280;32542;52.832;13.816;2022-08-23T14:13:52;101764.81;;;24.21;55.18
17254;BME280;32542;52.832;13.816;2022-08-23T14:16:55;101760.34;;;24.21;55.54
17254;BME280;32542;52.832;13.816;2022-08-23T14:20:05;101768.19;;;24.24;55.28
17254;BME280;32542;52.832;13.816;2022-08-23T14:23:30;101753.09;;;24.23;55.35
17254;BME280;32542;52.832;13.816;2022-08-23T14:26:33;101763.81;;;24.23;55.50
17254;BME280;32542;52.832;13.816;2022-08-23T14:29:36;101763.72;;;24.25;55.51
17254;BME280;32542;52.832;13.816;2022-08-23T14:32:39;101765.53;;;24.24;55.49
17254;BME280;32542;52.832;13.816;2022-08-23T14:35:44;101774.44;;;24.25;55.09
17254;BME280;32542;52.832;13.816;2022-08-23T14:38:47;101769.09;;;24.25;55.48
17254;BME280;32542;52.832;13.816;2022-08-23T14:41:51;101767.28;;;24.25;55.33
17254;BME280;32542;52.832;13.816;2022-08-23T14:44:54;101757.44;;;24.26;55.40
17254;BME280;32542;52.832;13.816;2022-08-23T14:47:57;101756.56;;;24.25;55.25
17254;BME280;32542;52.832;13.816;2022-08-23T14:51:02;101761.94;;;24.25;55.39
17254;BME280;32542;52.832;13.816;2022-08-23T14:54:07;101759.16;;;24.27;55.35
17254;BME280;32542;52.832;13.816;2022-08-23T14:57:12;101764.53;;;24.27;55.47
17254;BME280;32542;52.832;13.816;2022-08-23T15:00:16;101741.31;;;24.27;55.29
17254;BME280;32542;52.832;13.816;2022-08-23T15:03:23;101739.50;;;24.28;55.12
17254;BME280;32542;52.832;13.816;2022-08-23T15:06:28;101742.09;;;24.29;55.17
17254;BME280;32542;52.832;13.816;2022-08-23T15:09:31;101730.47;;;24.30;55.13
17254;BME280;32542;52.832;13.816;2022-08-23T15:12:34;101733.16;;;24.30;55.21
17254;BME280;32542;52.832;13.816;2022-08-23T15:15:58;101725.91;;;24.32;55.25
17254;BME280;32542;52.832;13.816;2022-08-23T15:19:02;101726.84;;;24.31;55.50
17254;BME280;32542;52.832;13.816;2022-08-23T15:22:06;101727.72;;;24.32;55.35
17254;BME280;32542;52.832;13.816;2022-08-23T15:25:22;101731.25;;;24.32;55.48
17254;BME280;32542;52.832;13.816;2022-08-23T15:28:26;101723.16;;;24.34;55.48
17254;BME280;32542;52.832;13.816;2022-08-23T15:31:29;101719.50;;;24.35;55.28
17254;BME280;32542;52.832;13.816;2022-08-23T15:34:32;101732.84;;;24.36;55.65
17254;BME280;32542;52.832;13.816;2022-08-23T15:37:37;101728.34;;;24.37;55.47
17254;BME280;32542;52.832;13.816;2022-08-23T15:40:44;101728.34;;;24.37;55.46
17254;BME280;32542;52.832;13.816;2022-08-23T15:43:47;101730.97;;;24.38;55.51
17254;BME280;32542;52.832;13.816;2022-08-23T15:46:51;101728.19;;;24.40;55.35
17254;BME280;32542;52.832;13.816;2022-08-23T15:49:56;101721.03;;;24.40;55.74
17254;BME280;32542;52.832;13.816;2022-08-23T15:53:01;101722.72;;;24.43;55.57
17254;BME280;32542;52.832;13.816;2022-08-23T15:56:07;101723.56;;;24.43;55.44
17254;BME280;32542;52.832;13.816;2022-08-23T15:59:12;101728.91;;;24.43;55.82
17254;BME280;32542;52.832;13.816;2022-08-23T16:02:16;101720.03;;;24.43;55.79
17254;BME280;32542;52.832;13.816;2022-08-23T16:05:19;101716.41;;;24.44;55.52
17254;BME280;32542;52.832;13.816;2022-08-23T16:08:26;101721.75;;;24.44;55.76
17254;BME280;32542;52.832;13.816;2022-08-23T16:11:31;101712.81;;;24.45;55.86
17254;BME280;32542;52.832;13.816;2022-08-23T16:14:34;101713.63;;;24.45;55.43
17254;BME280;32542;52.832;13.816;2022-08-23T16:17:37;101718.16;;;24.45;55.67